Time;durP1;ratioP1;P1;durP2;ratioP2;P2;SDS_P1;SDS_P2;PMS_P1;PMS_P2;Temp;Humidity;BMP_temperature;BMP_pressure;BME280_temperature;BME280_humidity;BME280_pressure;Samples;Min_cycle;Max_cycle;Signal;HPM_P1;HPM_P2
2021/12/15 00:02:21;;;;;;;4.23;2.43;;;;;;;3.48;74.87;101473.28;6262493;28;20210;-77
2021/12/15 00:05:28;;;;;;;8.77;2.10;;;;;;;3.45;75.57;101476.34;6262990;28;20188;-78
2021/12/15 00:08:33;;;;;;;4.90;2.00;;;;;;;3.71;74.96;101463.28;6263630;28;20194;-77
2021/12/15 00:11:38;;;;;;;8.03;1.80;;;;;;;3.51;75.64;101466.66;6262284;28;20195;-78
2021/12/15 00:14:44;;;;;;;4.03;1.70;;;;;;;3.52;75.72;101477.31;6263609;28;20229;-78
2021/12/15 00:17:49;;;;;;;7.27;2.07;;;;;;;3.46;76.59;101469.88;6262512;28;20484;-77
2021/12/15 00:20:55;;;;;;;9.37;2.20;;;;;;;3.41;75.83;101455.19;6263373;28;20195;-77
2021/12/15 00:24:00;;;;;;;6.77;1.93;;;;;;;3.57;75.81;101455.91;6261681;28;20246;-77
2021/12/15 00:27:05;;;;;;;7.93;1.80;;;;;;;3.66;76.28;101449.41;6262902;28;20215;-77
2021/12/15 00:30:12;;;;;;;10.10;1.90;;;;;;;3.85;75.71;101454.34;6261689;28;20203;-78
2021/12/15 00:33:18;;;;;;;5.70;2.07;;;;;;;3.65;76.49;101447.72;6263500;28;20188;-78
2021/12/15 00:36:24;;;;;;;5.40;1.63;;;;;;;3.71;76.18;101447.00;6263977;28;20191;-78
2021/12/15 00:39:29;;;;;;;6.20;1.80;;;;;;;3.74;75.06;101452.06;6279738;28;20271;-78
2021/12/15 00:42:33;;;;;;;4.77;1.90;;;;;;;3.65;75.68;101447.72;6264594;28;20539;-77
2021/12/15 00:45:38;;;;;;;4.20;1.83;;;;;;;3.76;75.23;101455.44;6280381;28;20225;-78
2021/12/15 00:48:43;;;;;;;2.57;1.80;;;;;;;3.73;74.96;101461.22;6262714;28;20374;-78
2021/12/15 00:51:49;;;;;;;9.83;2.47;;;;;;;3.71;76.14;101467.88;6262620;28;20191;-78
2021/12/15 00:54:54;;;;;;;6.50;1.90;;;;;;;3.78;75.92;101474.25;6262730;28;20188;-77
2021/12/15 00:58:00;;;;;;;3.60;2.30;;;;;;;3.61;75.88;101456.41;6261194;28;20522;-78
2021/12/15 01:01:05;;;;;;;7.80;2.10;;;;;;;3.88;75.57;101453.97;6262813;28;20188;-77
2021/12/15 01:04:14;;;;;;;4.17;2.03;;;;;;;3.63;75.98;101449.78;6261133;28;20203;-78
2021/12/15 01:07:19;;;;;;;12.27;2.73;;;;;;;3.87;75.69;101446.84;6261425;28;20487;-77
2021/12/15 01:10:33;;;;;;;6.30;1.73;;;;;;;3.72;76.05;101445.97;6262278;28;20192;-77
2021/12/15 01:20:35;;;;;;;13.53;2.00;;;;;;;3.74;76.90;101435.78;6266619;28;20290;-78
2021/12/15 01:23:42;;;;;;;12.60;2.70;;;;;;;3.84;76.68;101441.81;6265153;28;20358;-78
2021/12/15 01:26:46;;;;;;;8.60;2.33;;;;;;;3.98;76.16;101419.28;6265962;28;20251;-77
2021/12/15 01:29:51;;;;;;;8.63;2.23;;;;;;;3.78;76.64;101409.94;6266998;28;20227;-77
2021/12/15 01:32:57;;;;;;;4.90;2.30;;;;;;;3.62;77.42;101414.66;6265988;28;20542;-77
2021/12/15 01:36:04;;;;;;;4.43;2.20;;;;;;;3.95;76.58;101413.34;6266824;28;20192;-77
2021/12/15 01:39:10;;;;;;;9.47;2.60;;;;;;;4.24;75.17;101399.00;6266915;28;20191;-77
2021/12/15 01:42:14;;;;;;;4.20;2.30;;;;;;;4.10;76.03;101402.53;6265257;28;20330;-77
2021/12/15 01:48:43;;;;;;;6.53;2.87;;;;;;;4.07;75.47;101406.47;6265417;28;20498;-78
2021/12/15 01:51:48;;;;;;;5.37;2.27;;;;;;;4.03;76.01;101401.59;6265709;28;20480;-78
2021/12/15 01:54:56;;;;;;;7.40;2.27;;;;;;;4.09;75.76;101401.69;6266867;28;20218;-78
2021/12/15 01:58:00;;;;;;;4.80;2.27;;;;;;;4.21;75.16;101400.19;6266360;28;20204;-78
2021/12/15 02:01:09;;;;;;;5.33;2.40;;;;;;;4.21;75.28;101405.63;6264483;28;20203;-77
2021/12/15 02:04:16;;;;;;;5.10;2.23;;;;;;;4.11;75.80;101393.34;6266271;28;20196;-77
2021/12/15 02:07:22;;;;;;;6.07;2.20;;;;;;;4.16;76.14;101401.78;6264819;28;20230;-77
2021/12/15 02:10:32;;;;;;;4.07;2.37;;;;;;;4.14;75.62;101396.53;6266053;28;20189;-78
2021/12/15 02:13:38;;;;;;;5.23;2.13;;;;;;;4.37;74.94;101399.19;6265632;28;20188;-78
2021/12/15 02:16:43;;;;;;;9.20;2.50;;;;;;;4.13;76.26;101394.03;6280564;28;20358;-77
2021/12/15 02:19:47;;;;;;;8.23;2.30;;;;;;;4.38;75.23;101384.59;6264121;28;20208;-77
2021/12/15 02:22:53;;;;;;;2.87;2.63;;;;;;;4.41;75.08;101373.34;6264283;28;20419;-77
2021/12/15 02:26:00;;;;;;;7.07;2.57;;;;;;;4.46;74.69;101370.91;6265939;28;20232;-77
2021/12/15 02:29:13;;;;;;;10.23;2.10;;;;;;;4.40;75.62;101371.66;6265580;28;20256;-78
2021/12/15 02:32:30;;;;;;;4.70;2.80;;;;;;;4.14;76.07;101360.38;6280191;28;20200;-78
2021/12/15 02:39:15;;;;;;;8.00;2.53;;;;;;;4.23;76.31;101348.41;6173135;28;20252;-78
2021/12/15 02:42:21;;;;;;;2.37;2.00;;;;;;;4.25;76.26;101346.34;6188543;28;20213;-78
2021/12/15 02:45:26;;;;;;;5.73;2.50;;;;;;;4.42;76.23;101340.53;6263896;28;20298;-77
2021/12/15 02:48:31;;;;;;;3.63;2.63;;;;;;;4.40;76.16;101333.59;6263776;28;20215;-78
2021/12/15 02:51:36;;;;;;;2.40;2.23;;;;;;;4.33;77.07;101333.53;6263949;28;20502;-77
2021/12/15 02:54:42;;;;;;;6.90;2.73;;;;;;;4.37;77.04;101317.69;6264963;28;20188;-77
2021/12/15 02:57:47;;;;;;;2.50;2.30;;;;;;;4.10;78.40;101321.06;6263591;28;20192;-78
2021/12/15 03:00:58;;;;;;;2.20;2.00;;;;;;;4.27;78.15;101322.56;6265041;28;20196;-77
2021/12/15 03:04:14;;;;;;;5.40;2.40;;;;;;;4.25;78.14;101308.31;6264738;28;20231;-77
2021/12/15 03:07:29;;;;;;;2.10;2.10;;;;;;;4.39;77.77;101304.75;6263722;28;20213;-77
2021/12/15 03:17:22;;;;;;;8.57;2.30;;;;;;;4.56;77.09;101300.81;6263976;28;20193;-78
2021/12/15 03:20:28;;;;;;;4.00;2.03;;;;;;;4.54;77.21;101308.28;6265438;28;20189;-78
2021/12/15 03:23:40;;;;;;;2.43;2.07;;;;;;;4.45;78.09;101287.69;6264199;28;20266;-78
2021/12/15 03:26:52;;;;;;;3.93;1.77;;;;;;;4.22;78.95;101281.53;6265470;28;20198;-78
2021/12/15 03:33:35;;;;;;;1.70;1.70;;;;;;;4.24;79.59;101279.47;6264475;28;20189;-78
2021/12/15 03:37:06;;;;;;;3.60;1.80;;;;;;;4.41;79.21;101287.22;6263588;28;20433;-78
2021/12/15 03:40:18;;;;;;;2.00;1.90;;;;;;;4.27;80.39;101284.53;6264685;28;20193;-78
2021/12/15 03:43:24;;;;;;;5.73;1.93;;;;;;;4.22;80.02;101281.53;6265117;28;20255;-78
2021/12/15 03:46:28;;;;;;;2.10;1.73;;;;;;;4.28;80.15;101275.34;6264707;28;20185;-78
2021/12/15 03:49:33;;;;;;;2.00;1.87;;;;;;;4.30;80.75;101273.28;6264601;28;20242;-78
2021/12/15 03:52:38;;;;;;;3.23;2.10;;;;;;;3.97;82.04;101283.69;6263905;28;20440;-78
2021/12/15 03:55:43;;;;;;;1.63;1.53;;;;;;;4.37;80.40;101291.34;6264904;28;20190;-78
2021/12/15 03:58:49;;;;;;;4.10;2.10;;;;;;;4.39;80.86;101272.13;6264586;28;20191;-78
2021/12/15 04:01:54;;;;;;;3.50;1.90;;;;;;;4.46;79.52;101294.81;6264582;28;20257;-78
2021/12/15 04:04:58;;;;;;;1.87;1.87;;;;;;;4.64;79.10;101297.97;6263353;28;20586;-78
2021/12/15 04:08:03;;;;;;;2.03;1.40;;;;;;;4.48;80.06;101292.75;6262479;28;20281;-77
2021/12/15 04:11:12;;;;;;;2.10;1.87;;;;;;;4.77;78.18;101292.69;6262209;28;20193;-77
2021/12/15 04:14:22;;;;;;;2.47;2.00;;;;;;;4.38;80.61;101276.75;6263083;28;20289;-77
2021/12/15 04:17:31;;;;;;;2.10;2.00;;;;;;;4.58;79.93;101298.72;6262811;28;20223;-77
2021/12/15 04:20:38;;;;;;;2.50;1.90;;;;;;;4.51;80.48;101292.38;6261780;28;20205;-78
2021/12/15 04:23:48;;;;;;;2.10;1.50;;;;;;;4.88;79.29;101300.38;6262778;28;20239;-78
2021/12/15 04:26:53;;;;;;;1.80;1.70;;;;;;;4.60;80.07;101297.50;6262892;28;20219;-77
2021/12/15 04:29:59;;;;;;;1.77;1.77;;;;;;;4.38;81.74;101313.94;6261646;28;20527;-77
2021/12/15 04:33:10;;;;;;;5.83;1.70;;;;;;;4.22;82.56;101297.81;6262948;28;20220;-77
2021/12/15 04:36:16;;;;;;;1.77;1.77;;;;;;;5.00;78.90;101298.00;6262677;28;20186;-77
2021/12/15 04:39:23;;;;;;;1.50;1.50;;;;;;;4.82;79.68;101284.84;6262466;28;20221;-77
2021/12/15 04:42:27;;;;;;;3.60;1.63;;;;;;;4.63;80.75;101285.41;6263083;28;20198;-77
2021/12/15 04:45:33;;;;;;;1.60;1.60;;;;;;;4.53;80.59;101279.44;6263619;28;20259;-77
2021/12/15 04:48:41;;;;;;;2.10;1.73;;;;;;;4.70;80.51;101275.47;6267610;28;20239;-77
2021/12/15 04:51:45;;;;;;;1.77;1.63;;;;;;;4.70;80.63;101263.75;6267784;28;20271;-77
2021/12/15 04:54:50;;;;;;;1.90;1.80;;;;;;;4.74;80.56;101263.22;6266796;28;20220;-76
2021/12/15 04:57:56;;;;;;;2.77;1.70;;;;;;;4.92;79.73;101255.44;6267467;28;20194;-76
2021/12/15 05:01:04;;;;;;;1.60;1.53;;;;;;;4.38;82.74;101248.72;6265859;28;20492;-77
2021/12/15 05:04:10;;;;;;;1.57;1.57;;;;;;;4.81;80.28;101245.06;6266638;28;20295;-76
2021/12/15 05:07:16;;;;;;;1.40;1.40;;;;;;;4.58;80.64;101238.94;6267267;28;20189;-77
2021/12/15 05:10:22;;;;;;;1.63;1.20;;;;;;;4.59;81.30;101236.00;6266403;28;20462;-77
2021/12/15 05:13:27;;;;;;;1.30;1.30;;;;;;;4.77;80.61;101232.88;6267180;28;20266;-77
2021/12/15 05:16:33;;;;;;;1.57;1.30;;;;;;;4.69;81.46;101229.47;6266937;28;20199;-77
2021/12/15 05:19:38;;;;;;;1.37;1.37;;;;;;;5.02;79.93;101208.88;6265764;28;20192;-77
2021/12/15 05:22:42;;;;;;;2.57;1.57;;;;;;;4.86;80.57;101212.72;6266478;28;20185;-77
2021/12/15 05:25:48;;;;;;;1.70;1.70;;;;;;;4.95;79.46;101192.50;6265892;28;20268;-77
2021/12/15 05:28:52;;;;;;;1.70;1.60;;;;;;;4.93;79.56;101199.16;6267110;28;20213;-77
2021/12/15 05:31:59;;;;;;;1.50;1.40;;;;;;;4.80;80.77;101194.44;6267199;28;20185;-77
2021/12/15 05:35:06;;;;;;;1.47;1.43;;;;;;;5.11;78.84;101196.81;6267075;28;20185;-78
2021/12/15 05:38:12;;;;;;;1.93;1.70;;;;;;;5.06;79.48;101200.13;6265669;28;20489;-78
2021/12/15 05:41:17;;;;;;;1.60;1.60;;;;;;;5.16;79.16;101194.34;6265617;28;20539;-77
2021/12/15 05:44:23;;;;;;;4.00;1.53;;;;;;;5.27;78.49;101179.38;6266759;28;20225;-77
2021/12/15 05:47:28;;;;;;;2.47;1.80;;;;;;;5.02;79.40;101193.41;6265535;28;20275;-77
2021/12/15 05:50:33;;;;;;;1.37;1.37;;;;;;;5.21;79.03;101176.41;6267004;28;20286;-77
2021/12/15 05:53:37;;;;;;;2.60;1.90;;;;;;;5.20;78.79;101163.84;6265983;28;20195;-77
2021/12/15 05:56:42;;;;;;;1.60;1.60;;;;;;;5.10;79.15;101167.94;6266301;28;20232;-77
2021/12/15 05:59:47;;;;;;;1.70;1.70;;;;;;;5.02;80.70;101171.66;6266205;28;20419;-77
2021/12/15 06:02:53;;;;;;;2.23;1.83;;;;;;;4.99;81.26;101172.03;6267477;28;20194;-77
2021/12/15 06:05:58;;;;;;;2.07;1.90;;;;;;;5.02;80.22;101182.53;6269323;28;20251;-78
2021/12/15 06:09:03;;;;;;;2.00;2.00;;;;;;;5.03;81.00;101172.47;6269898;28;20197;-77
2021/12/15 06:12:10;;;;;;;1.70;1.70;;;;;;;5.23;79.83;101168.88;6266272;28;20192;-77
2021/12/15 06:15:20;;;;;;;1.50;1.50;;;;;;;5.20;80.21;101176.59;6265599;28;20388;-79
2021/12/15 06:18:27;;;;;;;2.90;2.17;;;;;;;5.01;80.59;101175.41;6266458;28;20186;-79
2021/12/15 06:21:31;;;;;;;2.07;2.07;;;;;;;5.09;80.18;101171.69;6266676;28;20227;-79
2021/12/15 06:24:38;;;;;;;1.90;1.90;;;;;;;5.25;79.83;101178.72;6266060;28;20265;-78
2021/12/15 06:27:42;;;;;;;2.07;1.80;;;;;;;4.98;80.93;101178.50;6265078;28;20193;-78
2021/12/15 06:30:47;;;;;;;2.63;1.90;;;;;;;5.19;80.16;101167.59;6265454;28;20418;-78
2021/12/15 06:33:53;;;;;;;6.03;1.90;;;;;;;4.82;81.96;101170.63;6265008;28;20477;-78
2021/12/15 06:36:58;;;;;;;3.10;2.00;;;;;;;5.19;80.43;101167.59;6266329;28;20254;-78
2021/12/15 06:40:07;;;;;;;3.43;1.73;;;;;;;5.38;78.86;101176.13;6266013;28;20260;-78
2021/12/15 06:43:11;;;;;;;1.80;1.80;;;;;;;5.43;78.94;101168.19;6265834;28;20211;-79
2021/12/15 06:46:40;;;;;;;1.73;1.63;;;;;;;5.47;78.88;101169.47;6265871;28;20196;-78
2021/12/15 06:58:17;;;;;;;1.90;1.87;;;;;;;5.11;78.76;101154.44;6311305;28;20223;-77
2021/12/15 07:01:21;;;;;;;2.33;1.77;;;;;;;5.01;78.77;101176.56;6309410;28;20194;-77
2021/12/15 07:04:26;;;;;;;1.77;1.60;;;;;;;4.91;78.80;101177.94;6309405;28;20205;-77
2021/12/15 07:07:32;;;;;;;1.97;1.87;;;;;;;4.88;79.14;101176.47;6308860;28;20262;-78
2021/12/15 07:10:40;;;;;;;1.90;1.90;;;;;;;5.19;78.10;101173.34;6310551;28;20213;-78
2021/12/15 07:13:46;;;;;;;1.83;1.60;;;;;;;5.06;78.77;101175.97;6309907;28;20276;-78
2021/12/15 07:16:53;;;;;;;2.03;1.77;;;;;;;4.78;80.53;101159.66;6309199;28;20216;-77
2021/12/15 07:20:07;;;;;;;1.83;1.67;;;;;;;4.75;80.72;101160.88;6308891;28;20428;-78
2021/12/15 07:23:16;;;;;;;2.03;1.77;;;;;;;4.96;79.87;101172.75;6310642;28;20193;-79
2021/12/15 07:26:22;;;;;;;2.23;2.03;;;;;;;5.21;78.03;101157.63;6310559;28;20184;-78
2021/12/15 07:29:27;;;;;;;2.63;2.00;;;;;;;5.14;78.98;101148.59;6310692;28;20240;-77
2021/12/15 07:32:32;;;;;;;2.07;2.03;;;;;;;5.26;78.14;101164.16;6312377;28;20185;-79
2021/12/15 07:35:39;;;;;;;2.10;2.00;;;;;;;5.15;79.16;101158.41;6315349;28;20185;-78
2021/12/15 07:38:44;;;;;;;1.80;1.80;;;;;;;5.31;77.81;101144.50;6315480;28;20185;-78
2021/12/15 07:41:52;;;;;;;1.80;1.80;;;;;;;5.48;77.51;101137.66;6314635;28;20533;-78
2021/12/15 07:44:56;;;;;;;3.13;2.00;;;;;;;5.30;78.33;101154.53;6311632;28;20260;-78
2021/12/15 07:48:02;;;;;;;2.50;2.30;;;;;;;5.10;79.65;101148.13;6308589;28;20187;-78
2021/12/15 07:51:09;;;;;;;2.20;2.10;;;;;;;5.35;78.70;101140.31;6307517;28;20237;-78
2021/12/15 07:54:16;;;;;;;4.03;2.20;;;;;;;5.26;78.53;101152.44;6307684;28;20207;-78
2021/12/15 07:57:22;;;;;;;1.80;1.80;;;;;;;5.39;79.04;101136.16;6308447;28;20274;-78
2021/12/15 08:00:27;;;;;;;1.80;1.80;;;;;;;5.31;79.00;101144.50;6305567;28;20299;-78
2021/12/15 08:03:33;;;;;;;1.90;1.90;;;;;;;5.11;80.52;101133.50;6291359;28;20215;-78
2021/12/15 08:06:38;;;;;;;3.80;1.87;;;;;;;5.29;78.69;101131.09;6291425;28;20233;-78
2021/12/15 08:09:45;;;;;;;6.20;1.80;;;;;;;5.35;78.92;101137.59;6292265;28;20213;-78
2021/12/15 08:12:50;;;;;;;1.87;1.87;;;;;;;5.63;77.52;101143.78;6290775;28;20470;-78
2021/12/15 08:15:55;;;;;;;1.80;1.80;;;;;;;5.46;78.79;101147.91;6292086;28;20186;-78
2021/12/15 08:18:59;;;;;;;1.73;1.70;;;;;;;5.50;77.99;101164.72;6293338;28;20186;-78
2021/12/15 08:22:04;;;;;;;1.87;1.87;;;;;;;5.64;77.59;101161.84;6291566;28;20191;-78
2021/12/15 08:25:13;;;;;;;1.80;1.80;;;;;;;5.39;77.98;101141.59;6292019;28;20188;-78
2021/12/15 08:28:19;;;;;;;2.03;2.03;;;;;;;5.54;78.25;101160.53;6291990;28;20191;-78
2021/12/15 08:31:23;;;;;;;2.27;2.20;;;;;;;5.71;77.50;101157.25;6291189;28;20209;-78
2021/12/15 08:34:28;;;;;;;2.10;1.97;;;;;;;5.45;76.85;101157.97;6291594;28;20226;-78
2021/12/15 08:37:33;;;;;;;2.07;2.00;;;;;;;5.59;78.44;101164.34;6291013;28;20210;-78
2021/12/15 08:40:39;;;;;;;2.10;2.10;;;;;;;5.80;77.66;101156.03;6289675;28;20195;-77
2021/12/15 08:43:44;;;;;;;2.17;2.07;;;;;;;5.45;78.97;101157.97;6289177;28;20375;-77
2021/12/15 08:46:50;;;;;;;2.00;2.00;;;;;;;5.61;78.48;101156.78;6289014;28;20202;-77
2021/12/15 08:49:54;;;;;;;2.03;2.03;;;;;;;5.53;79.06;101154.22;6289111;28;20489;-77
2021/12/15 08:53:00;;;;;;;2.33;2.00;;;;;;;5.74;77.67;101145.94;6290285;28;20186;-77
2021/12/15 08:56:07;;;;;;;2.97;1.80;;;;;;;5.61;79.17;101140.44;6289212;28;20249;-77
2021/12/15 08:59:11;;;;;;;2.27;2.17;;;;;;;5.73;78.40;101143.44;6290108;28;20198;-78
2021/12/15 09:02:16;;;;;;;1.90;1.90;;;;;;;5.78;78.17;101139.06;6288672;28;20196;-78
2021/12/15 09:05:22;;;;;;;2.10;2.10;;;;;;;5.69;78.67;101132.09;6290111;28;20245;-77
2021/12/15 09:08:27;;;;;;;2.00;2.00;;;;;;;5.71;79.03;101129.16;6288851;28;20224;-77
2021/12/15 09:11:33;;;;;;;2.80;1.80;;;;;;;5.87;78.77;101126.91;6290092;28;20276;-78
2021/12/15 09:14:37;;;;;;;2.10;2.10;;;;;;;5.79;78.47;101126.25;6288556;28;20186;-77
2021/12/15 09:17:41;;;;;;;2.37;2.20;;;;;;;5.57;79.71;101133.72;6289676;28;20191;-78
2021/12/15 09:20:46;;;;;;;2.40;2.30;;;;;;;5.94;79.28;101125.03;6288755;28;20200;-78
2021/12/15 09:23:51;;;;;;;2.40;2.20;;;;;;;6.09;78.33;101112.06;6289348;28;20229;-77
2021/12/15 09:26:58;;;;;;;2.03;2.00;;;;;;;5.75;79.39;101109.50;6290151;28;20274;-77
2021/12/15 09:30:03;;;;;;;2.60;2.30;;;;;;;6.14;78.21;101116.13;6289755;28;20314;-78
2021/12/15 09:33:07;;;;;;;3.43;1.80;;;;;;;6.06;79.77;101106.22;6288977;28;20358;-78
2021/12/15 09:36:14;;;;;;;2.67;2.43;;;;;;;6.13;78.09;101106.25;6289430;28;20213;-78
2021/12/15 09:39:21;;;;;;;2.33;2.30;;;;;;;6.15;77.80;101093.22;6288436;28;20210;-77
2021/12/15 09:42:33;;;;;;;2.10;2.10;;;;;;;6.20;78.75;101107.09;6288117;28;20196;-78
2021/12/15 09:45:46;;;;;;;2.07;2.07;;;;;;;6.19;78.49;101105.41;6289624;28;20186;-77
2021/12/15 10:02:41;;;;;;;2.97;2.20;;;;;;;6.06;81.18;101090.69;6313180;28;20450;-78
2021/12/15 10:05:53;;;;;;;2.30;1.97;;;;;;;6.47;78.60;101082.38;6313674;28;20195;-78
2021/12/15 10:12:34;;;;;;;1.90;1.90;;;;;;;6.53;78.32;101080.66;6312804;28;20275;-78
2021/12/15 10:19:18;;;;;;;3.63;2.30;;;;;;;6.58;78.89;101105.41;6312663;28;20214;-78
2021/12/15 10:22:32;;;;;;;3.27;2.30;;;;;;;6.50;79.06;101100.19;6313539;28;20190;-78
2021/12/15 10:25:43;;;;;;;3.17;2.33;;;;;;;6.44;79.95;101103.75;6313743;28;20217;-78
2021/12/15 10:28:52;;;;;;;3.13;2.23;;;;;;;6.60;79.31;101108.78;6312124;28;20186;-77
2021/12/15 10:32:02;;;;;;;2.50;2.40;;;;;;;6.35;80.14;101100.38;6311590;28;20273;-77
2021/12/15 10:35:11;;;;;;;2.20;2.10;;;;;;;6.28;80.33;101109.59;6312826;28;20187;-77
2021/12/15 10:38:20;;;;;;;3.63;1.97;;;;;;;6.32;81.59;101099.97;6313194;28;20261;-77
2021/12/15 10:41:27;;;;;;;8.87;2.47;;;;;;;6.83;79.36;101092.81;6312433;28;20418;-78
2021/12/15 10:44:32;;;;;;;4.93;2.77;;;;;;;6.68;78.94;101103.13;6313041;28;20232;-78
2021/12/15 10:47:43;;;;;;;3.53;2.50;;;;;;;6.69;79.84;101091.16;6312956;28;20231;-78
2021/12/15 10:50:49;;;;;;;2.77;2.20;;;;;;;6.83;79.37;101089.25;6311792;28;20416;-78
2021/12/15 10:53:55;;;;;;;2.50;2.30;;;;;;;6.87;78.92;101104.97;6313957;28;20216;-77
2021/12/15 10:57:03;;;;;;;2.30;2.20;;;;;;;6.87;78.99;101104.13;6312758;28;20194;-78
2021/12/15 11:00:16;;;;;;;2.20;2.10;;;;;;;7.06;77.70;101098.66;6312775;28;20192;-78
2021/12/15 11:03:33;;;;;;;2.50;2.30;;;;;;;7.23;77.32;101094.41;6311872;28;20378;-78
2021/12/15 11:07:15;;;;;;;2.43;2.33;;;;;;;6.93;78.77;101095.09;6313454;28;20187;-78
2021/12/15 11:10:26;;;;;;;2.30;2.20;;;;;;;6.83;79.02;101087.38;6312278;28;20187;-78
2021/12/15 11:13:33;;;;;;;3.17;2.93;;;;;;;6.52;80.67;101089.91;6312843;28;20280;-78
2021/12/15 11:16:37;;;;;;;3.70;2.67;;;;;;;7.01;78.75;101086.69;6312974;28;20228;-78
2021/12/15 11:19:56;;;;;;;6.53;2.50;;;;;;;6.84;79.50;101094.47;6311903;28;20433;-78
2021/12/15 11:23:03;;;;;;;9.00;2.60;;;;;;;6.88;79.29;101090.28;6313508;28;20254;-79
2021/12/15 11:26:11;;;;;;;4.57;2.50;;;;;;;6.89;79.53;101083.75;6313868;28;20201;-78
2021/12/15 11:29:15;;;;;;;6.33;2.47;;;;;;;7.09;78.36;101095.47;6314853;28;20186;-78
2021/12/15 11:32:41;;;;;;;3.03;2.67;;;;;;;7.03;78.26;101090.03;6314503;28;20263;-78
2021/12/15 11:35:51;;;;;;;4.77;2.60;;;;;;;6.85;79.95;101089.88;6315328;28;20190;-77
2021/12/15 11:38:59;;;;;;;4.53;2.60;;;;;;;7.04;78.41;101095.28;6315509;28;20183;-78
2021/12/15 11:42:05;;;;;;;2.30;2.10;;;;;;;7.02;78.92;101097.38;6315345;28;20496;-77
2021/12/15 11:45:13;;;;;;;2.20;2.07;;;;;;;6.80;80.02;101087.78;6316041;28;20277;-77
2021/12/15 11:48:21;;;;;;;2.60;2.40;;;;;;;6.87;80.04;101085.88;6315031;28;20186;-77
2021/12/15 11:51:38;;;;;;;7.40;2.50;;;;;;;7.17;78.74;101073.41;6315573;28;20413;-77
2021/12/15 11:54:47;;;;;;;4.53;2.20;;;;;;;7.08;79.14;101073.84;6316185;28;20250;-77
2021/12/15 11:57:53;;;;;;;3.10;2.10;;;;;;;6.76;81.23;101083.78;6316106;28;20187;-77
2021/12/15 12:00:58;;;;;;;4.47;2.10;;;;;;;6.91;79.62;101084.41;6316434;28;20249;-78
2021/12/15 12:04:16;;;;;;;5.13;1.80;;;;;;;7.23;78.64;101078.00;6316594;28;20226;-78
2021/12/15 12:07:25;;;;;;;1.90;1.73;;;;;;;7.14;79.05;101068.38;6315079;28;20468;-78
2021/12/15 12:10:34;;;;;;;1.47;1.47;;;;;;;7.31;77.35;101080.50;6316509;28;20184;-77
2021/12/15 12:13:41;;;;;;;1.70;1.60;;;;;;;7.33;76.56;101072.91;6315085;28;20525;-78
2021/12/15 12:16:49;;;;;;;3.27;1.97;;;;;;;7.33;77.30;101067.47;6315665;28;20437;-78
2021/12/15 12:19:57;;;;;;;1.67;1.60;;;;;;;7.42;77.42;101081.72;6316532;28;20187;-78
2021/12/15 12:23:06;;;;;;;1.70;1.60;;;;;;;7.35;77.90;101080.06;6315919;28;20302;-77
2021/12/15 12:26:11;;;;;;;3.03;1.47;;;;;;;6.95;78.74;101091.09;6316090;28;20228;-79
2021/12/15 12:29:17;;;;;;;1.53;1.50;;;;;;;7.02;79.34;101089.19;6316342;28;20257;-79
2021/12/15 12:32:22;;;;;;;1.50;1.50;;;;;;;7.49;76.65;101076.22;6316222;28;20207;-78
2021/12/15 12:35:31;;;;;;;1.30;1.20;;;;;;;7.53;76.30;101086.50;6315903;28;20276;-79
2021/12/15 12:38:39;;;;;;;2.63;1.53;;;;;;;7.33;76.74;101088.47;6315647;28;20211;-78
2021/12/15 12:41:46;;;;;;;1.73;1.40;;;;;;;7.18;77.22;101091.47;6315946;28;20250;-78
2021/12/15 12:44:52;;;;;;;3.03;1.30;;;;;;;7.31;77.12;101087.84;6316015;28;20224;-79
2021/12/15 12:48:14;;;;;;;1.30;1.30;;;;;;;7.49;76.22;101088.00;6314664;28;20219;-79
2021/12/15 13:01:24;;;;;;;4.23;1.10;;;;;;;7.11;77.14;101089.81;6314990;28;20203;-79
2021/12/15 13:04:41;;;;;;;1.43;1.00;;;;;;;7.51;75.48;101109.63;6315989;28;20250;-79
2021/12/15 13:07:48;;;;;;;1.83;1.50;;;;;;;7.26;76.40;101113.09;6316436;28;20187;-78
2021/12/15 13:11:05;;;;;;;0.97;0.97;;;;;;;7.60;74.53;101127.47;6315511;28;20195;-79
2021/12/15 13:14:13;;;;;;;1.00;1.00;;;;;;;7.63;74.43;101106.00;6315694;28;20218;-79
2021/12/15 13:17:24;;;;;;;1.20;1.10;;;;;;;7.28;75.76;101080.09;6314971;28;20191;-79
2021/12/15 13:20:31;;;;;;;0.90;0.90;;;;;;;7.61;74.81;101101.78;6315185;28;20544;-79
2021/12/15 13:23:43;;;;;;;0.97;0.97;;;;;;;7.54;74.79;101123.69;6316046;28;20198;-78
2021/12/15 13:30:26;;;;;;;1.00;1.00;;;;;;;7.02;76.49;101116.50;6316850;28;20274;-78
2021/12/15 13:33:50;;;;;;;1.10;1.10;;;;;;;7.02;76.88;101108.31;6299176;28;20227;-77
2021/12/15 13:36:55;;;;;;;2.13;0.90;;;;;;;6.62;78.21;101107.53;6317933;28;20191;-77
2021/12/15 13:39:59;;;;;;;0.90;0.90;;;;;;;7.24;76.11;101101.53;6317964;28;20230;-77
2021/12/15 13:43:05;;;;;;;1.07;1.00;;;;;;;7.23;75.90;101083.47;6318324;28;20458;-77
2021/12/15 13:46:29;;;;;;;1.80;0.97;;;;;;;7.46;74.81;101114.91;6319558;28;20214;-77
2021/12/15 13:49:42;;;;;;;4.03;0.90;;;;;;;7.43;74.84;101121.63;6310110;28;20487;-77
2021/12/15 13:52:53;;;;;;;1.10;1.10;;;;;;;7.44;74.44;101138.88;6317242;28;20213;-77
2021/12/15 13:55:57;;;;;;;1.53;1.13;;;;;;;7.38;74.57;101131.53;6315777;28;20187;-78
2021/12/15 13:59:31;;;;;;;0.70;0.70;;;;;;;7.28;74.68;101121.91;6314263;28;20258;-78
2021/12/15 14:02:38;;;;;;;0.90;0.90;;;;;;;7.36;74.93;101147.28;6313645;28;20252;-78
2021/12/15 14:05:46;;;;;;;0.87;0.87;;;;;;;7.27;74.99;101133.88;6312660;28;20187;-77
2021/12/15 14:08:53;;;;;;;0.93;0.93;;;;;;;7.37;74.70;101125.25;6312598;28;20187;-78
2021/12/15 14:11:58;;;;;;;2.07;0.90;;;;;;;7.48;74.36;101118.28;6312299;28;20183;-78
2021/12/15 14:15:04;;;;;;;0.90;0.90;;;;;;;7.58;74.47;101124.13;6312326;28;20385;-77
2021/12/15 14:18:18;;;;;;;1.07;1.07;;;;;;;7.36;74.70;101126.28;6312589;28;20186;-77
2021/12/15 14:21:22;;;;;;;1.00;1.00;;;;;;;7.25;74.48;101125.06;6313105;28;20218;-77
2021/12/15 14:24:27;;;;;;;1.00;1.00;;;;;;;7.35;74.73;101145.63;6313028;28;20236;-77
2021/12/15 14:27:31;;;;;;;1.27;1.20;;;;;;;7.48;73.93;101156.53;6313224;28;20205;-77
2021/12/15 14:30:40;;;;;;;1.00;1.00;;;;;;;7.14;75.34;101160.41;6311794;28;20197;-77
2021/12/15 14:33:47;;;;;;;1.30;1.20;;;;;;;7.06;75.75;101169.66;6312908;28;20280;-77
2021/12/15 14:36:54;;;;;;;1.07;1.03;;;;;;;7.23;75.28;101181.78;6312500;28;20183;-77
2021/12/15 14:39:58;;;;;;;1.70;1.17;;;;;;;7.35;74.82;101178.41;6311516;28;20469;-77
2021/12/15 14:43:04;;;;;;;1.10;1.10;;;;;;;7.37;73.81;101200.88;6312848;28;20244;-78
2021/12/15 14:46:20;;;;;;;1.40;1.30;;;;;;;7.28;74.54;101214.78;6312240;28;20229;-77
2021/12/15 14:49:27;;;;;;;1.47;1.23;;;;;;;7.30;74.47;101209.94;6303747;28;20365;-77
2021/12/15 14:52:34;;;;;;;1.80;1.17;;;;;;;7.16;74.82;101197.34;6312317;28;20193;-78
2021/12/15 14:55:40;;;;;;;3.60;3.40;;;;;;;6.87;76.65;101200.50;6312489;28;20210;-77
2021/12/15 14:58:44;;;;;;;4.23;2.67;;;;;;;7.22;75.37;101212.88;6312504;28;20187;-77
2021/12/15 15:01:53;;;;;;;2.30;1.97;;;;;;;7.33;74.62;101204.03;6312618;28;20219;-77
2021/12/15 15:05:01;;;;;;;3.63;1.40;;;;;;;6.87;76.26;101213.31;6311911;28;20254;-77
2021/12/15 15:08:09;;;;;;;1.50;1.40;;;;;;;7.24;75.24;101212.69;6294089;28;20210;-77
2021/12/15 15:11:16;;;;;;;3.00;1.30;;;;;;;7.16;75.05;101201.97;6313133;28;20187;-79
2021/12/15 15:14:29;;;;;;;2.87;1.50;;;;;;;7.13;75.85;101203.25;6315855;28;20286;-76
2021/12/15 15:17:47;;;;;;;1.40;1.10;;;;;;;7.47;74.05;101204.03;6317364;28;20183;-77
2021/12/15 15:20:53;;;;;;;1.37;1.27;;;;;;;7.21;75.66;101200.28;6317258;28;20195;-80
2021/12/15 15:23:58;;;;;;;1.40;1.10;;;;;;;7.39;74.55;101205.09;6316929;28;20197;-77
2021/12/15 15:27:06;;;;;;;1.50;1.20;;;;;;;7.51;74.17;101194.31;6316027;28;20197;-77
2021/12/15 15:30:14;;;;;;;1.73;1.63;;;;;;;7.38;74.27;101200.66;6299381;28;20568;-76
2021/12/15 15:33:23;;;;;;;4.37;1.67;;;;;;;7.17;75.89;101209.94;6316844;28;20187;-79
2021/12/15 15:36:28;;;;;;;1.50;1.50;;;;;;;7.48;74.30;101217.44;6308870;28;20271;-77
2021/12/15 15:40:07;;;;;;;2.33;1.53;;;;;;;7.13;75.77;101222.34;6317362;28;20191;-79
2021/12/15 15:43:14;;;;;;;1.67;1.67;;;;;;;7.12;75.73;101239.78;6318584;28;20194;-79
2021/12/15 15:46:21;;;;;;;3.67;3.40;;;;;;;7.25;75.51;101222.53;6317157;28;20416;-80
2021/12/15 15:49:26;;;;;;;4.40;1.83;;;;;;;6.96;77.16;101229.31;6316483;28;20415;-80
2021/12/15 15:52:39;;;;;;;1.93;1.77;;;;;;;7.64;73.73;101238.88;6317911;28;20486;-81